createdAt,value
2023-03-13T00:02:19.657Z,4.53
2023-03-13T00:04:47.618Z,4.60
2023-03-13T00:07:16.947Z,4.57
2023-03-13T00:09:44.837Z,4.57
2023-03-13T00:12:12.765Z,4.55
2023-03-13T00:14:40.917Z,4.62
2023-03-13T00:17:08.905Z,4.49
2023-03-13T00:19:37.002Z,4.58
2023-03-13T00:22:04.935Z,4.44
2023-03-13T00:24:34.441Z,4.60
2023-03-13T00:27:03.429Z,4.37
2023-03-13T00:29:31.785Z,4.40
2023-03-13T00:32:00.021Z,4.34
2023-03-13T00:34:28.180Z,4.44
2023-03-13T00:36:56.853Z,4.28
2023-03-13T00:39:24.837Z,4.28
2023-03-13T00:41:54.151Z,4.34
2023-03-13T00:44:22.097Z,4.03
2023-03-13T00:46:50.005Z,4.01
2023-03-13T00:49:17.884Z,4.12
2023-03-13T00:51:45.798Z,4.08
2023-03-13T00:54:13.723Z,4.05
2023-03-13T00:56:41.606Z,4.07
2023-03-13T00:59:10.942Z,3.92
2023-03-13T01:01:38.794Z,3.79
2023-03-13T01:04:08.537Z,3.94
2023-03-13T01:06:38.337Z,3.98
2023-03-13T01:09:07.828Z,3.74
2023-03-13T01:11:37.951Z,3.81
2023-03-13T01:14:08.090Z,3.71
2023-03-13T01:16:38.092Z,3.71
2023-03-13T01:19:08.672Z,3.70
2023-03-13T01:21:37.755Z,3.43
2023-03-13T01:24:05.956Z,3.18
2023-03-13T01:26:33.919Z,3.21
2023-03-13T01:29:01.846Z,3.10
2023-03-13T01:31:31.895Z,2.96
2023-03-13T01:34:03.044Z,2.96
2023-03-13T01:36:31.249Z,3.07
2023-03-13T01:39:00.734Z,2.91
2023-03-13T01:41:31.306Z,2.79
2023-03-13T01:44:00.087Z,2.75
2023-03-13T01:46:29.459Z,2.45
2023-03-13T01:49:04.507Z,2.44
2023-03-13T01:51:36.209Z,2.23
2023-03-13T01:54:08.928Z,2.37
2023-03-13T01:56:41.309Z,2.49
2023-03-13T01:59:13.292Z,2.53
2023-03-13T02:01:42.896Z,2.46
2023-03-13T02:04:12.770Z,2.43
2023-03-13T02:06:44.412Z,2.44
2023-03-13T02:09:17.091Z,2.41
2023-03-13T02:11:50.831Z,2.47
2023-03-13T02:14:22.433Z,2.26
2023-03-13T02:16:52.156Z,2.06
2023-03-13T02:19:28.830Z,2.15
2023-03-13T02:22:06.535Z,2.07
2023-03-13T02:24:39.432Z,1.78
2023-03-13T02:27:08.889Z,1.83
2023-03-13T02:29:36.859Z,1.69
2023-03-13T02:32:05.221Z,1.47
2023-03-13T02:34:36.833Z,1.36
2023-03-13T02:37:07.408Z,1.36
2023-03-13T02:39:36.529Z,1.24
2023-03-13T02:42:04.988Z,1.11
2023-03-13T02:44:39.362Z,0.99
2023-03-13T02:47:09.774Z,0.88
2023-03-13T02:49:38.041Z,0.89
2023-03-13T02:52:14.405Z,0.85
2023-03-13T02:54:44.728Z,0.86
2023-03-13T02:57:12.645Z,0.98
2023-03-13T02:59:42.096Z,1.02
2023-03-13T03:02:10.081Z,0.90
2023-03-13T03:04:37.972Z,0.85
2023-03-13T03:07:05.968Z,0.96
2023-03-13T03:09:33.909Z,0.96
2023-03-13T03:12:01.877Z,1.02
2023-03-13T03:14:29.793Z,1.03
2023-03-13T03:16:59.026Z,1.04
2023-03-13T03:19:26.962Z,1.14
2023-03-13T03:21:54.820Z,1.03
2023-03-13T03:24:22.751Z,0.83
2023-03-13T03:26:50.703Z,0.63
2023-03-13T03:29:19.074Z,0.76
2023-03-13T03:31:46.994Z,0.86
2023-03-13T03:34:16.285Z,0.91
2023-03-13T03:36:44.237Z,0.84
2023-03-13T03:39:12.590Z,0.90
2023-03-13T03:41:40.481Z,1.05
2023-03-13T03:44:08.494Z,0.71
2023-03-13T03:46:36.420Z,0.85
2023-03-13T03:49:04.560Z,0.56
2023-03-13T03:51:34.059Z,0.26
2023-03-13T03:54:01.989Z,0.26
2023-03-13T03:56:29.956Z,0.14
2023-03-13T03:58:57.946Z,0.39
2023-03-13T04:01:25.918Z,0.43
2023-03-13T04:03:53.882Z,0.56
2023-03-13T04:06:21.754Z,0.30
2023-03-13T04:08:51.190Z,0.13
2023-03-13T04:11:19.132Z,0.04
2023-03-13T04:13:47.062Z,0.18
2023-03-13T04:16:15.015Z,0.36
2023-03-13T04:18:42.950Z,0.27
2023-03-13T04:21:10.968Z,0.42
2023-03-13T04:23:38.884Z,0.37
2023-03-13T04:26:08.281Z,0.57
2023-03-13T04:28:36.261Z,0.50
2023-03-13T04:31:04.246Z,0.47
2023-03-13T04:33:32.183Z,0.45
2023-03-13T04:36:00.188Z,0.22
2023-03-13T04:38:28.181Z,0.17
2023-03-13T04:40:56.119Z,0.32
2023-03-13T04:43:25.367Z,0.29
2023-03-13T04:45:55.249Z,0.31
2023-03-13T04:48:23.316Z,0.42
2023-03-13T04:50:51.303Z,0.63
2023-03-13T04:53:19.408Z,0.53
2023-03-13T04:55:49.242Z,0.58
2023-03-13T04:58:17.192Z,0.65
2023-03-13T05:00:46.615Z,0.66
2023-03-13T05:03:14.599Z,0.68
2023-03-13T05:05:42.476Z,0.69
2023-03-13T05:08:11.136Z,0.64
2023-03-13T05:10:39.041Z,0.76
2023-03-13T05:13:06.929Z,0.76
2023-03-13T05:15:34.941Z,0.80
2023-03-13T05:18:04.459Z,0.61
2023-03-13T05:20:32.375Z,0.72
2023-03-13T05:23:00.254Z,0.77
2023-03-13T05:25:28.156Z,0.88
2023-03-13T05:27:56.163Z,1.06
2023-03-13T05:30:26.536Z,0.97
2023-03-13T05:32:54.530Z,1.07
2023-03-13T05:35:24.336Z,1.24
2023-03-13T05:37:52.446Z,1.54
2023-03-13T05:40:20.478Z,1.87
2023-03-13T05:42:48.501Z,2.34
2023-03-13T05:45:16.601Z,2.62
2023-03-13T05:47:44.566Z,2.95
2023-03-13T05:50:12.896Z,3.34
2023-03-13T05:52:42.238Z,3.61
2023-03-13T05:55:10.753Z,4.02
2023-03-13T05:57:39.470Z,4.01
2023-03-13T06:00:08.677Z,3.96
2023-03-13T06:02:36.618Z,4.25
2023-03-13T06:05:04.731Z,4.55
2023-03-13T06:07:32.746Z,4.94
2023-03-13T06:10:02.040Z,4.72
2023-03-13T06:12:29.972Z,4.87
2023-03-13T06:14:57.876Z,4.95
2023-03-13T06:17:26.130Z,4.45
2023-03-13T06:19:54.105Z,4.85
2023-03-13T06:22:22.040Z,5.26
2023-03-13T06:24:50.816Z,4.87
2023-03-13T06:27:20.148Z,4.82
2023-03-13T06:29:48.044Z,4.97
2023-03-13T06:32:16.162Z,5.43
2023-03-13T06:34:44.168Z,5.62
2023-03-13T06:37:12.112Z,6.15
2023-03-13T06:39:40.128Z,6.50
2023-03-13T06:42:08.711Z,6.69
2023-03-13T06:44:38.584Z,6.86
2023-03-13T06:47:06.844Z,6.99
2023-03-13T06:49:34.859Z,7.17
2023-03-13T06:52:02.778Z,6.94
2023-03-13T06:54:30.823Z,6.71
2023-03-13T06:56:58.872Z,6.49
2023-03-13T06:59:26.966Z,6.28
2023-03-13T07:01:56.355Z,6.14
2023-03-13T07:04:24.307Z,5.89
2023-03-13T07:06:53.033Z,6.46
2023-03-13T07:09:21.013Z,6.46
2023-03-13T07:11:49.280Z,6.64
2023-03-13T07:14:17.897Z,6.84
2023-03-13T07:16:46.633Z,6.94
2023-03-13T07:19:16.347Z,7.08
2023-03-13T07:21:44.552Z,6.60
2023-03-13T07:24:12.650Z,7.12
2023-03-13T07:26:46.503Z,7.41
2023-03-13T07:29:22.337Z,7.63
2023-03-13T07:31:50.336Z,7.78
2023-03-13T07:34:19.792Z,7.88
2023-03-13T07:36:47.801Z,7.87
2023-03-13T07:39:15.696Z,8.17
2023-03-13T07:41:43.684Z,8.38
2023-03-13T07:44:11.944Z,8.88
2023-03-13T07:46:39.886Z,8.34
2023-03-13T07:49:07.840Z,8.81
2023-03-13T07:51:44.072Z,8.38
2023-03-13T07:54:12.382Z,8.82
2023-03-13T07:56:41.035Z,8.97
2023-03-13T07:59:09.478Z,8.77
2023-03-13T08:01:38.034Z,9.11
2023-03-13T08:04:06.327Z,9.23
2023-03-13T08:06:36.797Z,9.57
2023-03-13T08:09:05.632Z,9.00
2023-03-13T08:11:33.812Z,8.68
2023-03-13T08:14:01.787Z,9.01
2023-03-13T08:16:31.052Z,9.13
2023-03-13T08:19:00.019Z,9.12
2023-03-13T08:21:29.569Z,9.42
2023-03-13T08:24:01.292Z,10.26
2023-03-13T08:26:30.901Z,10.72
2023-03-13T08:29:00.524Z,10.39
2023-03-13T08:31:29.741Z,11.20
2023-03-13T08:33:58.203Z,11.86
2023-03-13T08:36:27.450Z,11.44
2023-03-13T08:38:56.829Z,10.78
2023-03-13T08:41:28.652Z,10.66
2023-03-13T08:43:56.861Z,11.76
2023-03-13T08:46:25.808Z,11.89
2023-03-13T08:48:55.843Z,11.43
2023-03-13T08:51:25.200Z,11.38
2023-03-13T08:53:54.066Z,10.89
2023-03-13T08:56:24.197Z,10.11
2023-03-13T08:58:54.661Z,10.34
2023-03-13T09:01:24.260Z,11.31
2023-03-13T09:03:52.883Z,11.16
2023-03-13T09:06:21.058Z,10.89
2023-03-13T09:08:49.065Z,11.21
2023-03-13T09:11:20.296Z,11.12
2023-03-13T09:13:50.193Z,11.19
2023-03-13T09:16:21.903Z,10.74
2023-03-13T09:18:50.465Z,10.58
2023-03-13T09:21:20.484Z,10.60
2023-03-13T09:23:48.777Z,10.52
2023-03-13T09:26:17.524Z,10.93
2023-03-13T09:28:45.808Z,11.42
2023-03-13T09:31:15.386Z,12.21
2023-03-13T09:33:45.741Z,12.58
2023-03-13T09:36:14.272Z,12.86
2023-03-13T09:38:42.785Z,12.51
2023-03-13T09:41:23.922Z,12.52
2023-03-13T09:43:57.572Z,12.00
2023-03-13T09:46:33.097Z,11.87
2023-03-13T09:49:06.288Z,12.73
2023-03-13T09:51:38.464Z,12.10
2023-03-13T09:54:10.566Z,11.27
2023-03-13T09:56:45.834Z,11.87
2023-03-13T09:59:20.049Z,11.66
2023-03-13T10:01:50.657Z,10.83
2023-03-13T10:04:31.454Z,10.26
2023-03-13T10:06:59.584Z,11.05
2023-03-13T10:09:31.684Z,11.45
2023-03-13T10:12:08.198Z,11.60
2023-03-13T10:14:44.215Z,11.74
2023-03-13T10:17:23.120Z,11.10
2023-03-13T10:19:58.995Z,10.97
2023-03-13T10:22:30.157Z,11.06
2023-03-13T10:25:01.628Z,10.92
2023-03-13T10:27:29.702Z,11.17
2023-03-13T10:29:57.628Z,11.12
2023-03-13T10:32:25.535Z,10.87
2023-03-13T10:34:58.539Z,10.91
2023-03-13T10:37:28.341Z,11.16
2023-03-13T10:40:12.043Z,10.74
2023-03-13T10:42:45.375Z,10.67
2023-03-13T10:45:17.869Z,10.55
2023-03-13T10:47:45.919Z,10.67
2023-03-13T10:50:23.893Z,10.86
2023-03-13T10:52:53.034Z,10.55
2023-03-13T10:55:23.638Z,10.54
2023-03-13T10:58:00.153Z,10.66
2023-03-13T11:00:36.785Z,10.92
2023-03-13T11:03:14.117Z,10.49
2023-03-13T11:05:44.246Z,10.65
2023-03-13T11:08:20.927Z,10.63
2023-03-13T11:10:58.507Z,10.92
2023-03-13T11:13:37.024Z,10.14
2023-03-13T11:16:21.310Z,11.13
2023-03-13T11:19:11.959Z,11.39
2023-03-13T11:21:49.836Z,11.26
2023-03-13T11:24:26.292Z,11.38
2023-03-13T11:27:04.942Z,11.01
2023-03-13T11:29:46.082Z,10.83
2023-03-13T11:32:24.020Z,11.15
2023-03-13T11:34:56.109Z,11.51
2023-03-13T11:37:29.108Z,11.03
2023-03-13T11:40:08.224Z,11.13
2023-03-13T11:42:51.515Z,11.06
2023-03-13T11:45:50.134Z,11.14
2023-03-13T11:48:33.248Z,11.01
2023-03-13T11:51:13.015Z,11.08
2023-03-13T11:54:05.026Z,11.12
2023-03-13T11:56:42.353Z,11.13
2023-03-13T11:59:31.756Z,11.25
2023-03-13T12:02:06.109Z,11.67
2023-03-13T12:04:39.442Z,11.87
2023-03-13T12:07:18.423Z,11.77
2023-03-13T12:09:55.031Z,11.74
2023-03-13T12:12:34.798Z,10.84
2023-03-13T12:15:19.034Z,11.14
2023-03-13T12:17:53.062Z,11.32
2023-03-13T12:20:25.828Z,11.60
2023-03-13T12:23:01.934Z,11.63
2023-03-13T12:25:39.469Z,11.56
2023-03-13T12:28:24.176Z,11.66
2023-03-13T12:31:00.376Z,11.60
2023-03-13T12:33:33.609Z,10.96
2023-03-13T12:36:09.257Z,11.33
2023-03-13T12:38:41.618Z,11.24
2023-03-13T12:41:21.319Z,11.34
2023-03-13T12:44:06.872Z,11.34
2023-03-13T12:46:43.822Z,11.11
2023-03-13T12:49:59.753Z,11.43
2023-03-13T12:52:53.276Z,11.40
2023-03-13T12:55:38.958Z,11.26
2023-03-13T12:58:26.909Z,10.83
2023-03-13T13:00:57.115Z,11.10
2023-03-13T13:03:36.326Z,11.29
2023-03-13T13:06:08.125Z,11.37
2023-03-13T13:08:39.511Z,11.17
2023-03-13T13:11:59.207Z,11.15
2023-03-13T13:15:04.210Z,11.32
2023-03-13T13:17:52.275Z,11.40
2023-03-13T13:20:52.787Z,11.26
2023-03-13T13:23:39.431Z,11.39
2023-03-13T13:26:40.099Z,11.12
2023-03-13T13:29:55.342Z,11.04
2023-03-13T13:32:42.431Z,11.48
2023-03-13T13:35:22.774Z,11.54
2023-03-13T13:37:51.014Z,11.73
2023-03-13T13:40:22.848Z,11.40
2023-03-13T13:42:54.042Z,11.45
2023-03-13T13:45:27.673Z,11.59
2023-03-13T13:48:33.005Z,11.85
2023-03-13T13:51:34.022Z,11.43
2023-03-13T13:54:03.668Z,11.05
2023-03-13T13:56:37.606Z,11.01
2023-03-13T13:59:24.856Z,11.13
2023-03-13T14:02:14.262Z,11.30
2023-03-13T14:04:46.201Z,11.51
2023-03-13T14:07:19.775Z,11.66
2023-03-13T14:09:55.860Z,11.38
2023-03-13T14:12:29.342Z,11.51
2023-03-13T14:15:26.103Z,11.48
2023-03-13T14:17:56.594Z,11.52
2023-03-13T14:20:29.156Z,11.44
2023-03-13T14:23:01.302Z,11.68
2023-03-13T14:25:42.456Z,11.33
2023-03-13T14:28:18.382Z,11.57
2023-03-13T14:30:46.729Z,11.51
2023-03-13T14:33:15.567Z,11.31
2023-03-13T14:35:44.925Z,11.52
2023-03-13T14:38:20.747Z,11.58
2023-03-13T14:40:49.675Z,11.45
2023-03-13T14:43:24.656Z,11.24
2023-03-13T14:45:52.618Z,11.33
2023-03-13T14:48:25.043Z,11.46
2023-03-13T14:51:14.317Z,11.37
2023-03-13T14:53:55.088Z,11.57
2023-03-13T14:56:33.027Z,11.55
2023-03-13T14:59:09.134Z,11.64
2023-03-13T15:01:37.254Z,11.71
2023-03-13T15:04:05.565Z,11.39
2023-03-13T15:06:35.048Z,11.37
2023-03-13T15:09:19.776Z,11.43
2023-03-13T15:11:59.528Z,11.69
2023-03-13T15:14:39.365Z,11.90
2023-03-13T15:17:19.370Z,11.88
2023-03-13T15:19:54.442Z,11.73
2023-03-13T15:22:28.766Z,11.68
2023-03-13T15:25:05.989Z,11.50
2023-03-13T15:27:35.470Z,11.43
2023-03-13T15:30:03.564Z,11.64
2023-03-13T15:32:34.802Z,11.82
2023-03-13T15:35:03.450Z,11.75
2023-03-13T15:37:33.033Z,11.70
2023-03-13T15:40:00.960Z,11.81
2023-03-13T15:42:28.907Z,11.63
2023-03-13T15:44:56.875Z,11.77
2023-03-13T15:47:24.867Z,11.62
2023-03-13T15:49:52.696Z,11.60
2023-03-13T15:52:22.836Z,11.37
2023-03-13T15:54:53.086Z,11.30
2023-03-13T15:57:24.353Z,11.23
2023-03-13T15:59:53.171Z,11.23
2023-03-13T16:02:23.220Z,11.03
2023-03-13T16:04:51.742Z,10.74
2023-03-13T16:07:21.871Z,10.90
2023-03-13T16:09:50.209Z,10.66
2023-03-13T16:12:19.575Z,10.47
2023-03-13T16:14:47.520Z,10.23
2023-03-13T16:17:17.570Z,10.45
2023-03-13T16:19:46.494Z,10.37
2023-03-13T16:22:14.864Z,10.36
2023-03-13T16:24:42.924Z,10.48
2023-03-13T16:27:15.333Z,10.51
2023-03-13T16:29:44.828Z,10.46
2023-03-13T16:32:14.080Z,10.52
2023-03-13T16:34:43.134Z,10.35
2023-03-13T16:37:13.443Z,10.33
2023-03-13T16:39:41.502Z,10.40
2023-03-13T16:42:09.890Z,10.37
2023-03-13T16:44:38.039Z,10.45
2023-03-13T16:47:18.829Z,10.30
2023-03-13T16:49:47.669Z,10.36
2023-03-13T16:52:16.787Z,10.32
2023-03-13T16:54:45.416Z,10.09
2023-03-13T16:57:14.621Z,10.15
2023-03-13T16:59:42.532Z,10.20
2023-03-13T17:02:17.385Z,10.11
2023-03-13T17:04:46.123Z,10.06
2023-03-13T17:07:19.858Z,10.08
2023-03-13T17:09:48.566Z,10.09
2023-03-13T17:12:17.227Z,9.88
2023-03-13T17:14:45.194Z,9.93
2023-03-13T17:17:16.541Z,9.70
2023-03-13T17:19:44.615Z,9.74
2023-03-13T17:22:14.463Z,9.77
2023-03-13T17:24:42.965Z,9.68
2023-03-13T17:27:13.765Z,9.79
2023-03-13T17:29:42.046Z,9.72
2023-03-13T17:32:11.568Z,9.68
2023-03-13T17:34:41.206Z,9.65
2023-03-13T17:37:15.954Z,9.44
2023-03-13T17:39:44.623Z,9.52
2023-03-13T17:42:12.695Z,9.29
2023-03-13T17:44:41.283Z,9.20
2023-03-13T17:47:14.586Z,9.15
2023-03-13T17:49:44.506Z,9.18
2023-03-13T17:52:16.860Z,8.95
2023-03-13T17:54:46.009Z,9.04
2023-03-13T17:57:17.070Z,8.94
2023-03-13T17:59:45.653Z,8.88
2023-03-13T18:02:14.816Z,8.99
2023-03-13T18:04:45.051Z,9.02
2023-03-13T18:07:18.076Z,8.93
2023-03-13T18:09:47.722Z,8.77
2023-03-13T18:12:16.430Z,8.48
2023-03-13T18:14:44.806Z,8.68
2023-03-13T18:17:16.516Z,8.74
2023-03-13T18:19:46.289Z,8.71
2023-03-13T18:22:16.222Z,8.78
2023-03-13T18:24:44.388Z,8.60
2023-03-13T18:27:14.442Z,8.60
2023-03-13T18:29:42.936Z,8.70
2023-03-13T18:32:13.260Z,8.75
2023-03-13T18:34:42.126Z,8.74
2023-03-13T18:37:21.028Z,8.75
2023-03-13T18:39:50.001Z,8.45
2023-03-13T18:42:18.631Z,8.36
2023-03-13T18:44:46.598Z,8.36
2023-03-13T18:47:17.120Z,8.34
2023-03-13T18:49:45.113Z,8.36
2023-03-13T18:52:14.416Z,8.33
2023-03-13T18:54:42.321Z,8.19
2023-03-13T18:57:14.296Z,8.20
2023-03-13T18:59:42.278Z,8.10
2023-03-13T19:02:14.299Z,7.99
2023-03-13T19:04:42.524Z,8.01
2023-03-13T19:07:16.677Z,8.00
2023-03-13T19:09:46.825Z,7.84
2023-03-13T19:12:16.576Z,7.86
2023-03-13T19:14:44.609Z,7.81
2023-03-13T19:17:19.814Z,7.71
2023-03-13T19:19:47.739Z,7.73
2023-03-13T19:22:17.044Z,7.60
2023-03-13T19:24:45.015Z,7.60
2023-03-13T19:27:17.048Z,6.75
2023-03-13T19:29:46.006Z,6.63
2023-03-13T19:32:15.707Z,6.43
2023-03-13T19:34:43.692Z,6.13
2023-03-13T19:37:15.660Z,5.97
2023-03-13T19:39:45.052Z,5.65
2023-03-13T19:42:12.942Z,5.70
2023-03-13T19:44:41.503Z,5.56
2023-03-13T19:47:14.466Z,5.42
2023-03-13T19:49:42.372Z,5.31
2023-03-13T19:52:10.323Z,5.30
2023-03-13T19:54:38.278Z,5.43
2023-03-13T19:57:07.669Z,5.34
2023-03-13T19:59:38.785Z,5.30
2023-03-13T20:02:09.223Z,5.26
2023-03-13T20:04:37.431Z,5.12
2023-03-13T20:07:05.411Z,4.88
2023-03-13T20:09:35.454Z,4.84
2023-03-13T20:12:03.501Z,4.65
2023-03-13T20:14:32.846Z,4.69
2023-03-13T20:17:00.824Z,4.33
2023-03-13T20:19:29.701Z,4.32
2023-03-13T20:22:00.637Z,4.08
2023-03-13T20:24:28.511Z,4.08
2023-03-13T20:26:56.685Z,4.07
2023-03-13T20:29:24.648Z,3.84
2023-03-13T20:31:53.988Z,3.79
2023-03-13T20:34:21.860Z,3.87
2023-03-13T20:36:49.983Z,3.79
2023-03-13T20:39:17.899Z,3.86
2023-03-13T20:41:45.802Z,3.74
2023-03-13T20:44:13.816Z,3.61
2023-03-13T20:46:41.802Z,3.69
2023-03-13T20:49:11.186Z,3.57
2023-03-13T20:51:39.175Z,3.50
2023-03-13T20:54:07.194Z,3.32
2023-03-13T20:56:36.821Z,3.31
2023-03-13T20:59:05.067Z,3.28
2023-03-13T21:01:33.046Z,3.56
2023-03-13T21:04:01.305Z,3.59
2023-03-13T21:06:30.690Z,3.64
2023-03-13T21:08:58.619Z,3.49
2023-03-13T21:11:26.653Z,3.64
2023-03-13T21:13:54.560Z,3.65
2023-03-13T21:16:22.673Z,3.58
2023-03-13T21:18:50.573Z,3.40
2023-03-13T21:21:22.192Z,3.47
2023-03-13T21:23:53.245Z,3.48
2023-03-13T21:26:21.779Z,3.60
2023-03-13T21:28:49.689Z,3.58
2023-03-13T21:31:19.401Z,3.50
2023-03-13T21:33:47.867Z,3.52
2023-03-13T21:36:18.403Z,3.50
2023-03-13T21:38:46.919Z,3.27
2023-03-13T21:41:18.735Z,3.41
2023-03-13T21:43:47.107Z,3.52
2023-03-13T21:46:17.645Z,3.70
2023-03-13T21:48:47.038Z,3.46
2023-03-13T21:51:15.525Z,3.50
2023-03-13T21:53:44.612Z,3.59
2023-03-13T21:56:15.570Z,3.63
2023-03-13T21:58:46.402Z,3.49
2023-03-13T22:01:15.338Z,3.38
2023-03-13T22:03:43.390Z,3.46
2023-03-13T22:06:14.784Z,3.54
2023-03-13T22:08:42.966Z,3.50
2023-03-13T22:11:11.114Z,3.26
2023-03-13T22:13:39.055Z,3.54
2023-03-13T22:16:10.460Z,3.35
2023-03-13T22:18:38.421Z,3.43
2023-03-13T22:21:06.803Z,3.40
2023-03-13T22:23:34.768Z,3.35
2023-03-13T22:26:03.439Z,3.30
2023-03-13T22:28:31.811Z,3.43
2023-03-13T22:31:01.699Z,3.51
2023-03-13T22:33:31.336Z,3.27
2023-03-13T22:35:59.561Z,3.29
2023-03-13T22:38:27.670Z,3.42
2023-03-13T22:40:59.569Z,3.28
2023-03-13T22:43:28.174Z,3.30
2023-03-13T22:45:56.636Z,3.44
2023-03-13T22:48:24.964Z,3.26
2023-03-13T22:51:02.205Z,3.25
2023-03-13T22:53:30.569Z,3.33
2023-03-13T22:55:58.650Z,3.18
2023-03-13T22:58:27.288Z,3.37
2023-03-13T23:00:55.854Z,3.50
2023-03-13T23:03:24.136Z,3.24
2023-03-13T23:05:52.040Z,3.20
2023-03-13T23:08:21.291Z,3.14
2023-03-13T23:10:49.228Z,3.04
2023-03-13T23:13:17.492Z,2.95
2023-03-13T23:15:55.594Z,3.17
2023-03-13T23:18:24.610Z,3.14
2023-03-13T23:20:52.517Z,2.99
2023-03-13T23:23:22.359Z,3.06
2023-03-13T23:25:50.266Z,2.86
2023-03-13T23:28:18.329Z,2.62
2023-03-13T23:30:46.299Z,2.46
2023-03-13T23:33:14.178Z,2.35
2023-03-13T23:35:43.890Z,2.14
2023-03-13T23:38:12.112Z,2.26
2023-03-13T23:40:41.675Z,2.16
2023-03-13T23:43:09.616Z,1.90
2023-03-13T23:45:37.863Z,2.05
2023-03-13T23:48:05.972Z,2.09
2023-03-13T23:50:33.929Z,1.97
2023-03-13T23:53:01.839Z,2.28
2023-03-13T23:55:30.029Z,2.35
2023-03-13T23:57:59.408Z,2.40
